Time;durP1;ratioP1;P1;durP2;ratioP2;P2;SDS_P1;SDS_P2;PMS_P1;PMS_P2;Temp;Humidity;BMP_temperature;BMP_pressure;BME280_temperature;BME280_humidity;BME280_pressure;Samples;Min_cycle;Max_cycle;Signal;HPM_P1;HPM_P2
2023/07/24 00:00:55;;;;;;;;;4.67;4.67;;;;;-143.47;100.00;63865.75;2104569;28;46193;-56
2023/07/24 00:01:55;;;;;;;;;8.00;5.25;;;;;-143.47;100.00;63865.75;2104866;28;46607;-57
2023/07/24 00:02:56;;;;;;;;;8.33;5.67;;;;;-143.47;100.00;63865.75;2094864;28;45923;-57
2023/07/24 00:03:56;;;;;;;;;4.67;4.67;;;;;-143.47;100.00;63865.75;2095239;28;46577;-57
2023/07/24 00:04:57;;;;;;;;;6.50;5.50;;;;;-143.47;100.00;63865.75;2101736;28;46682;-57
2023/07/24 00:05:59;;;;;;;;;4.67;4.67;;;;;-143.47;100.00;63865.75;2104699;28;46483;-58
2023/07/24 00:07:00;;;;;;;;;6.20;4.80;;;;;-143.47;100.00;63865.75;2104766;28;46768;-56
2023/07/24 00:08:00;;;;;;;;;3.40;3.40;;;;;-143.47;100.00;63865.75;2104421;27;46425;-54
2023/07/24 00:09:00;;;;;;;;;2.00;2.00;;;;;-143.47;100.00;63865.75;2104672;28;46484;-55
2023/07/24 00:10:01;;;;;;;;;2.67;2.67;;;;;-143.47;100.00;63865.75;2104810;28;46674;-53
2023/07/24 00:11:04;;;;;;;;;11.25;10.50;;;;;-143.47;100.00;63865.75;2104963;28;46212;-56
2023/07/24 00:12:05;;;;;;;;;10.80;9.20;;;;;-143.47;100.00;63865.75;2105039;28;46322;-56
2023/07/24 00:13:05;;;;;;;;;7.25;6.75;;;;;-143.47;100.00;63865.75;2104230;28;46576;-57
2023/07/24 00:14:05;;;;;;;;;6.67;6.67;;;;;-143.47;100.00;63865.75;2105157;28;46284;-57
2023/07/24 00:15:06;;;;;;;;;3.67;3.67;;;;;-143.47;100.00;63865.75;2096040;28;46585;-57
2023/07/24 00:16:08;;;;;;;;;5.00;5.00;;;;;-143.47;100.00;63865.75;2094888;28;46966;-57
2023/07/24 00:17:09;;;;;;;;;5.40;5.40;;;;;-143.47;100.00;63865.75;2105031;28;46420;-57
2023/07/24 00:18:09;;;;;;;;;7.75;6.25;;;;;-143.47;100.00;63865.75;2104090;27;46786;-55
2023/07/24 00:19:09;;;;;;;;;6.25;6.25;;;;;-143.47;100.00;63865.75;2105476;28;46732;-57
2023/07/24 00:20:10;;;;;;;;;16.00;13.75;;;;;-143.47;100.00;63865.75;2106528;28;46560;-57
2023/07/24 00:21:10;;;;;;;;;13.75;12.25;;;;;-143.47;100.00;63865.75;2106209;28;46177;-55
2023/07/24 00:22:11;;;;;;;;;9.25;9.25;;;;;-143.47;100.00;63865.75;2106083;28;46471;-57
2023/07/24 00:23:11;;;;;;;;;5.25;4.50;;;;;-143.47;100.00;63865.75;2106064;28;46216;-57
2023/07/24 00:24:11;;;;;;;;;9.50;8.00;;;;;-143.47;100.00;63865.75;2106270;28;46657;-55
2023/07/24 00:25:12;;;;;;;;;13.25;10.50;;;;;-143.47;100.00;63865.75;2106409;28;46379;-56
2023/07/24 00:26:12;;;;;;;;;8.00;5.75;;;;;-143.47;100.00;63865.75;2105932;28;46487;-57
2023/07/24 00:27:13;;;;;;;;;4.00;2.50;;;;;-143.47;100.00;63865.75;2106374;28;46572;-55
2023/07/24 00:28:14;;;;;;;;;5.00;3.80;;;;;-143.47;100.00;63865.75;2106128;27;45877;-57
2023/07/24 00:29:14;;;;;;;;;5.00;3.50;;;;;-143.47;100.00;63865.75;2104970;27;46690;-57
2023/07/24 00:30:14;;;;;;;;;3.00;3.00;;;;;-143.47;100.00;63865.75;2088275;28;46253;-58
2023/07/24 00:31:15;;;;;;;;;1.67;1.67;;;;;-143.47;100.00;63865.75;2088500;28;46622;-58
2023/07/24 00:32:15;;;;;;;;;2.00;2.00;;;;;-143.47;100.00;63865.75;2088467;28;46736;-55
2023/07/24 00:33:15;;;;;;;;;0.33;0.33;;;;;-143.47;100.00;63865.75;2079973;28;46540;-56
2023/07/24 00:34:16;;;;;;;;;2.67;2.00;;;;;-143.47;100.00;63865.75;2085288;28;46689;-57
2023/07/24 00:35:16;;;;;;;;;2.00;2.00;;;;;-143.47;100.00;63865.75;2088215;28;46800;-55
2023/07/24 00:36:16;;;;;;;;;3.00;1.00;;;;;-143.47;100.00;63865.75;2088698;28;46426;-57
2023/07/24 00:37:17;;;;;;;;;4.75;4.75;;;;;-143.47;100.00;63865.75;2081131;28;46213;-56
2023/07/24 00:38:17;;;;;;;;;7.25;6.75;;;;;-143.47;100.00;63865.75;2087520;28;46481;-56
2023/07/24 00:39:17;;;;;;;;;3.00;3.00;;;;;-143.47;100.00;63865.75;2095646;28;47172;-54
2023/07/24 00:40:18;;;;;;;;;2.00;2.00;;;;;-143.47;100.00;63865.75;2089444;28;46697;-56
2023/07/24 00:41:18;;;;;;;;;3.00;3.00;;;;;-143.47;100.00;63865.75;2088369;28;45578;-56
2023/07/24 00:42:18;;;;;;;;;3.67;3.00;;;;;-143.47;100.00;63865.75;2088627;28;45744;-56
2023/07/24 00:43:19;;;;;;;;;3.00;3.00;;;;;-143.47;100.00;63865.75;2088332;28;46741;-56
2023/07/24 00:44:19;;;;;;;;;2.25;2.25;;;;;-143.47;100.00;63865.75;2080164;28;46907;-55
2023/07/24 00:45:22;;;;;;;;;2.00;2.00;;;;;-143.47;100.00;63865.75;2083114;28;46931;-55
2023/07/24 00:46:24;;;;;;;;;3.25;3.25;;;;;-143.47;100.00;63865.75;2089252;28;46949;-57
2023/07/24 00:47:26;;;;;;;;;2.00;2.00;;;;;-143.47;100.00;63865.75;2088974;28;46944;-56
2023/07/24 00:48:26;;;;;;;;;3.75;3.75;;;;;-143.47;100.00;63865.75;2088371;28;47079;-56
2023/07/24 00:49:27;;;;;;;;;4.00;3.33;;;;;-143.47;100.00;63865.75;2079107;28;46807;-56
2023/07/24 00:50:28;;;;;;;;;2.75;2.75;;;;;-143.47;100.00;63865.75;2085609;28;46703;-57
2023/07/24 00:51:30;;;;;;;;;5.00;4.40;;;;;-143.47;100.00;63865.75;2096571;28;47201;-56
2023/07/24 00:52:31;;;;;;;;;8.60;6.00;;;;;-143.47;100.00;63865.75;2097531;28;45142;-57
2023/07/24 00:53:32;;;;;;;;;6.50;6.50;;;;;-143.47;100.00;63865.75;2097082;28;46039;-56
2023/07/24 00:54:33;;;;;;;;;8.00;7.60;;;;;-143.47;100.00;63865.75;2088385;28;46030;-57
2023/07/24 00:55:34;;;;;;;;;7.20;6.40;;;;;-143.47;100.00;63865.75;2088508;28;45463;-56
2023/07/24 00:56:35;;;;;;;;;4.25;4.25;;;;;-143.47;100.00;63865.75;2088809;28;46864;-56
2023/07/24 00:57:35;;;;;;;;;3.25;2.00;;;;;-143.47;100.00;63865.75;2088922;28;46165;-55
2023/07/24 00:58:37;;;;;;;;;3.50;3.00;;;;;-143.47;100.00;63865.75;2087799;28;46446;-56
2023/07/24 00:59:38;;;;;;;;;5.00;3.40;;;;;-143.47;100.00;63865.75;2088379;28;46559;-57
2023/07/24 01:00:40;;;;;;;;;2.50;2.50;;;;;-143.47;100.00;63865.75;2090717;28;45640;-57
2023/07/24 01:01:42;;;;;;;;;5.00;4.00;;;;;-143.47;100.00;63865.75;2098551;27;46563;-57
2023/07/24 01:02:43;;;;;;;;;4.00;4.00;;;;;-143.47;100.00;63865.75;2105469;28;46791;-57
2023/07/24 01:03:43;;;;;;;;;6.60;5.40;;;;;-143.47;100.00;63865.75;2106241;28;45663;-56
2023/07/24 01:04:44;;;;;;;;;3.75;3.00;;;;;-143.47;100.00;63865.75;2105844;28;46730;-55
2023/07/24 01:05:44;;;;;;;;;3.00;3.00;;;;;-143.47;100.00;63865.75;2104977;27;46317;-57
2023/07/24 01:06:45;;;;;;;;;6.00;6.00;;;;;-143.47;100.00;63865.75;2105643;28;46138;-57
2023/07/24 01:07:45;;;;;;;;;7.75;6.75;;;;;-143.47;100.00;63865.75;2105214;28;46541;-55
2023/07/24 01:08:46;;;;;;;;;4.25;3.50;;;;;-143.47;100.00;63865.75;2097060;28;46243;-56
2023/07/24 01:09:47;;;;;;;;;9.25;8.00;;;;;-143.47;100.00;63865.75;2097391;28;46225;-56
2023/07/24 01:10:47;;;;;;;;;24.25;22.50;;;;;-143.47;100.00;63865.75;2105072;27;46337;-56
2023/07/24 01:11:56;;;;;;;;;20.50;19.25;;;;;-143.47;100.00;63865.75;2087432;28;46244;-56
2023/07/24 01:13:07;;;;;;;;;5.00;4.60;;;;;-143.47;100.00;63865.75;2090187;28;46100;-56
2023/07/24 01:14:36;;;;;;;;;10.80;10.20;;;;;-143.47;100.00;63865.75;2105353;28;46922;-55
2023/07/24 01:15:45;;;;;;;;;6.80;6.80;;;;;-143.47;100.00;63865.75;2105391;28;46681;-57
2023/07/24 01:16:47;;;;;;;;;14.60;10.80;;;;;-143.47;100.00;63865.75;2096601;28;46283;-57
2023/07/24 01:17:56;;;;;;;;;8.20;8.20;;;;;-143.47;100.00;63865.75;2096322;28;46362;-57
2023/07/24 01:18:58;;;;;;;;;3.80;3.80;;;;;-143.47;100.00;63865.75;2097284;28;46882;-57
2023/07/24 01:20:03;;;;;;;;;7.20;6.00;;;;;-143.47;100.00;63865.75;2100992;28;46437;-57
2023/07/24 01:21:05;;;;;;;;;17.00;15.00;;;;;-143.47;100.00;63865.75;2104781;27;46704;-57
2023/07/24 01:22:24;;;;;;;;;7.00;7.00;;;;;-143.47;100.00;63865.75;2105500;27;47102;-56
2023/07/24 01:23:53;;;;;;;;;8.00;8.00;;;;;-143.47;100.00;63865.75;2102699;28;46464;-57
2023/07/24 01:25:14;;;;;;;;;3.75;3.75;;;;;-143.47;100.00;63865.75;2105475;28;46427;-57
2023/07/24 01:26:14;;;;;;;;;4.80;4.80;;;;;-143.47;100.00;63865.75;2105845;28;46834;-56
2023/07/24 01:27:23;;;;;;;;;4.75;4.75;;;;;-143.47;100.00;63865.75;2105493;28;46341;-56
2023/07/24 01:28:25;;;;;;;;;3.60;3.20;;;;;-143.47;100.00;63865.75;2105619;28;46373;-56
2023/07/24 01:29:25;;;;;;;;;6.00;5.20;;;;;-143.47;100.00;63865.75;2105223;28;46477;-57
2023/07/24 01:30:25;;;;;;;;;4.00;4.00;;;;;-143.47;100.00;63865.75;2105012;28;46972;-57
2023/07/24 01:31:26;;;;;;;;;4.00;4.00;;;;;-143.47;100.00;63865.75;2104751;27;46669;-55
2023/07/24 01:32:26;;;;;;;;;3.25;3.25;;;;;-143.47;100.00;63865.75;2105331;28;46418;-57
2023/07/24 01:33:27;;;;;;;;;4.00;3.50;;;;;-143.47;100.00;63865.75;2105428;28;46508;-54
2023/07/24 01:34:27;;;;;;;;;3.50;3.50;;;;;-143.47;100.00;63865.75;2105057;28;46183;-54
2023/07/24 01:35:29;;;;;;;;;2.50;2.50;;;;;-143.47;100.00;63865.75;2105603;28;46702;-56
2023/07/24 01:36:30;;;;;;;;;1.60;1.60;;;;;-143.47;100.00;63865.75;2105507;28;46330;-56
2023/07/24 01:37:31;;;;;;;;;2.75;2.75;;;;;-143.47;100.00;63865.75;2105444;28;46267;-57
2023/07/24 01:38:34;;;;;;;;;2.00;2.00;;;;;-143.47;100.00;63865.75;2105632;28;46836;-57
2023/07/24 01:39:35;;;;;;;;;1.00;1.00;;;;;-143.47;100.00;63865.75;2105234;28;46599;-55
2023/07/24 01:40:36;;;;;;;;;4.00;4.00;;;;;-143.47;100.00;63865.75;2095220;28;46983;-54
2023/07/24 01:41:36;;;;;;;;;3.00;3.00;;;;;-143.47;100.00;63865.75;2103697;28;46377;-56
2023/07/24 01:42:37;;;;;;;;;4.00;2.67;;;;;-143.47;100.00;63865.75;2104650;27;45373;-56
2023/07/24 01:43:38;;;;;;;;;2.00;2.00;;;;;-143.47;100.00;63865.75;2105560;27;46573;-57
2023/07/24 01:44:38;;;;;;;;;5.33;4.67;;;;;-143.47;100.00;63865.75;2105232;27;46280;-57
2023/07/24 01:45:39;;;;;;;;;3.00;3.00;;;;;-143.47;100.00;63865.75;2105507;28;46692;-56
2023/07/24 01:46:39;;;;;;;;;3.75;3.50;;;;;-143.47;100.00;63865.75;2104909;27;46421;-57
2023/07/24 01:47:39;;;;;;;;;3.00;2.00;;;;;-143.47;100.00;63865.75;2105059;28;46885;-57
2023/07/24 01:48:40;;;;;;;;;3.50;3.50;;;;;-143.47;100.00;63865.75;2105621;28;46382;-57
2023/07/24 01:49:40;;;;;;;;;4.67;3.67;;;;;-143.47;100.00;63865.75;2105494;28;46210;-56
2023/07/24 01:50:40;;;;;;;;;2.33;2.33;;;;;-143.47;100.00;63865.75;2104715;28;46226;-57
2023/07/24 01:51:40;;;;;;;;;2.00;2.00;;;;;-143.47;100.00;63865.75;2104458;27;46173;-57
2023/07/24 01:52:41;;;;;;;;;3.00;3.00;;;;;-143.47;100.00;63865.75;2104798;27;46738;-57
2023/07/24 01:53:41;;;;;;;;;1.67;1.67;;;;;-143.47;100.00;63865.75;2104888;27;47205;-57
2023/07/24 01:54:42;;;;;;;;;2.67;1.00;;;;;-143.47;100.00;63865.75;2095738;28;46765;-56
2023/07/24 01:55:42;;;;;;;;;3.00;3.00;;;;;-143.47;100.00;63865.75;2094459;28;46600;-57
2023/07/24 01:56:43;;;;;;;;;4.00;4.00;;;;;-143.47;100.00;63865.75;2105138;28;46168;-56
2023/07/24 01:57:44;;;;;;;;;3.50;2.50;;;;;-143.47;100.00;63865.75;2096541;28;45645;-57
2023/07/24 01:58:44;;;;;;;;;2.00;2.00;;;;;-143.47;100.00;63865.75;2096562;28;46650;-57
2023/07/24 01:59:44;;;;;;;;;1.67;1.67;;;;;-143.47;100.00;63865.75;2096728;28;46667;-56
2023/07/24 02:00:45;;;;;;;;;2.67;2.67;;;;;-143.47;100.00;63865.75;2102388;28;46220;-57
2023/07/24 02:01:45;;;;;;;;;4.67;4.00;;;;;-143.47;100.00;63865.75;2104380;27;46420;-55
2023/07/24 02:02:45;;;;;;;;;3.00;3.00;;;;;-143.47;100.00;63865.75;2078945;28;46169;-56
2023/07/24 02:03:46;;;;;;;;;5.33;5.00;;;;;-143.47;100.00;63865.75;2070522;28;46533;-55
2023/07/24 02:04:46;;;;;;;;;2.67;2.67;;;;;-143.47;100.00;63865.75;2096184;28;46802;-57
2023/07/24 02:05:51;;;;;;;;;2.33;1.33;;;;;-143.47;100.00;63865.75;2105150;28;46355;-57
2023/07/24 02:06:51;;;;;;;;;2.40;2.40;;;;;-143.47;100.00;63865.75;2104355;27;46311;-56
2023/07/24 02:07:51;;;;;;;;;2.33;2.33;;;;;-143.47;100.00;63865.75;2105354;28;46616;-55
2023/07/24 02:08:52;;;;;;;;;2.67;2.67;;;;;-143.47;100.00;63865.75;2105539;28;46375;-56
2023/07/24 02:09:52;;;;;;;;;4.33;3.00;;;;;-143.47;100.00;63865.75;2096099;28;46167;-57
2023/07/24 02:10:52;;;;;;;;;4.00;3.00;;;;;-143.47;100.00;63865.75;2095939;28;46305;-55
2023/07/24 02:12:36;;;;;;;;;3.25;3.00;;;;;26.51;96.79;99938.06;2110456;27;44909;-57
2023/07/24 02:13:36;;;;;;;;;3.00;3.00;;;;;26.52;97.06;99944.34;2105076;27;45579;-57
2023/07/24 02:14:36;;;;;;;;;3.67;3.67;;;;;26.52;97.25;99944.34;2095577;28;46242;-57
2023/07/24 02:15:37;;;;;;;;;4.33;4.33;;;;;26.49;97.25;99950.97;2095328;28;46768;-57
2023/07/24 02:16:37;;;;;;;;;4.33;3.00;;;;;26.48;97.14;99949.25;2111324;27;46480;-55
2023/07/24 02:17:38;;;;;;;;;3.33;3.33;;;;;26.48;98.31;99946.53;2111670;27;46495;-57
2023/07/24 02:18:43;;;;;;;;;3.25;2.25;;;;;26.50;98.28;99932.75;2095281;28;46380;-55
2023/07/24 02:19:44;;;;;;;;;1.75;1.75;;;;;26.48;99.02;99932.91;2094880;28;46938;-56
2023/07/24 02:20:50;;;;;;;;;2.33;2.33;;;;;26.50;99.32;99930.91;2095107;28;46220;-57
2023/07/24 02:21:51;;;;;;;;;2.25;2.25;;;;;26.47;99.00;99928.50;2116131;27;46400;-57
2023/07/24 02:22:51;;;;;;;;;3.00;3.00;;;;;26.45;98.96;99921.50;2111527;27;46501;-58
2023/07/24 02:23:51;;;;;;;;;2.00;2.00;;;;;26.44;99.23;99925.22;2095133;27;46205;-56
2023/07/24 02:24:52;;;;;;;;;2.00;2.00;;;;;26.42;100.00;99921.78;2112348;27;46271;-56
2023/07/24 02:25:55;;;;;;;;;1.67;1.67;;;;;26.48;100.00;99932.06;2111432;27;46482;-56
2023/07/24 02:26:55;;;;;;;;;2.50;2.50;;;;;26.39;100.00;99940.13;2094842;28;46525;-55
2023/07/24 02:27:55;;;;;;;;;6.67;3.67;;;;;26.39;100.00;99942.00;2111556;27;46618;-55
2023/07/24 02:28:56;;;;;;;;;1.33;1.00;;;;;26.37;100.00;99942.16;2118188;27;46228;-54
2023/07/24 02:29:57;;;;;;;;;4.00;3.33;;;;;26.37;100.00;99946.75;2103808;27;46566;-57
2023/07/24 02:30:57;;;;;;;;;4.33;3.33;;;;;26.36;100.00;99945.88;2103025;28;47042;-57
2023/07/24 02:31:58;;;;;;;;;3.33;3.33;;;;;26.36;100.00;99937.72;2093957;28;47351;-55
2023/07/24 02:32:59;;;;;;;;;6.00;3.75;;;;;26.36;100.00;99942.31;2094348;28;46838;-56
2023/07/24 02:33:59;;;;;;;;;5.00;4.00;;;;;26.38;100.00;99943.00;2095293;28;46838;-56
2023/07/24 02:34:59;;;;;;;;;7.33;5.67;;;;;26.35;100.00;99944.16;2099934;28;46484;-54
2023/07/24 02:36:00;;;;;;;;;3.00;2.00;;;;;26.34;100.00;99947.88;2103540;28;46310;-55
2023/07/24 02:37:01;;;;;;;;;3.00;3.00;;;;;26.33;100.00;99946.16;2103503;28;46346;-57
2023/07/24 02:38:01;;;;;;;;;4.67;3.00;;;;;26.33;100.00;99950.75;2103484;28;45791;-57
2023/07/24 02:39:01;;;;;;;;;2.00;2.00;;;;;26.32;100.00;99951.78;2103229;28;46490;-56
2023/07/24 02:40:02;;;;;;;;;4.00;4.00;;;;;26.31;100.00;99950.91;2104076;28;46924;-56
2023/07/24 02:41:02;;;;;;;;;3.00;3.00;;;;;26.32;100.00;99940.88;2101269;28;46174;-57
2023/07/24 02:42:03;;;;;;;;;2.33;2.33;;;;;26.32;100.00;99938.16;2094896;28;46699;-56
2023/07/24 02:43:03;;;;;;;;;4.67;4.67;;;;;26.29;100.00;99930.28;2102560;28;46417;-56
2023/07/24 02:44:04;;;;;;;;;3.33;3.33;;;;;26.27;100.00;99930.44;2103399;28;46794;-53
2023/07/24 02:45:10;;;;;;;;;2.00;2.00;;;;;26.27;100.00;99929.59;2103712;27;46260;-56
2023/07/24 02:46:11;;;;;;;;;3.00;3.00;;;;;26.26;100.00;99927.88;2096506;28;46299;-54
2023/07/24 02:47:11;;;;;;;;;3.00;3.00;;;;;26.26;100.00;99930.59;2105507;27;46658;-57
2023/07/24 02:48:11;;;;;;;;;3.00;3.00;;;;;26.25;100.00;99927.03;2103583;28;46610;-55
2023/07/24 02:49:12;;;;;;;;;4.00;4.00;;;;;26.24;100.00;99925.31;2103285;27;46469;-56
2023/07/24 02:50:12;;;;;;;;;4.00;3.00;;;;;26.21;100.00;99922.91;2102900;28;46267;-56
2023/07/24 02:51:12;;;;;;;;;4.00;2.67;;;;;26.21;100.00;99925.63;2084947;28;46322;-56
2023/07/24 02:52:13;;;;;;;;;6.67;4.33;;;;;26.19;100.00;99929.53;2088771;28;46358;-55
2023/07/24 02:53:13;;;;;;;;;4.00;4.00;;;;;26.19;100.00;99922.22;2103405;28;46712;-57
2023/07/24 02:54:13;;;;;;;;;2.67;2.67;;;;;26.19;100.00;99924.94;2104026;28;46264;-58
2023/07/24 02:55:13;;;;;;;;;3.67;2.67;;;;;26.19;100.00;99924.94;2103311;28;46503;-56
2023/07/24 02:56:14;;;;;;;;;3.00;2.67;;;;;26.18;100.00;99917.78;2103522;28;46270;-58
2023/07/24 02:57:14;;;;;;;;;4.00;4.00;;;;;26.19;100.00;99918.63;2098048;27;46217;-57
2023/07/24 02:58:14;;;;;;;;;4.67;2.00;;;;;26.19;100.00;99913.19;2103255;28;46133;-56
2023/07/24 02:59:15;;;;;;;;;3.33;3.33;;;;;26.18;100.00;99914.22;2103572;28;46149;-58
2023/07/24 03:00:15;;;;;;;;;4.00;4.00;;;;;26.18;100.00;99920.50;2103444;28;46188;-57
2023/07/24 03:01:15;;;;;;;;;3.00;3.00;;;;;26.19;100.00;99927.66;2104113;28;46239;-56
2023/07/24 03:02:16;;;;;;;;;3.00;3.00;;;;;26.18;100.00;99927.81;2103455;28;46259;-57
2023/07/24 03:03:16;;;;;;;;;2.67;2.67;;;;;26.19;100.00;99937.69;2106676;27;46857;-57
2023/07/24 03:04:16;;;;;;;;;4.00;3.00;;;;;26.17;100.00;99937.84;2103434;27;46797;-56
2023/07/24 03:05:17;;;;;;;;;4.00;3.00;;;;;26.17;100.00;99937.84;2103315;28;47106;-55
2023/07/24 03:06:17;;;;;;;;;4.00;3.00;;;;;26.24;100.00;99947.06;2103321;28;46797;-55
2023/07/24 03:07:17;;;;;;;;;2.67;2.67;;;;;26.21;100.00;99949.25;2098226;28;46258;-56
2023/07/24 03:08:17;;;;;;;;;4.00;4.00;;;;;26.17;100.00;99943.28;2094583;28;46579;-55
2023/07/24 03:09:18;;;;;;;;;3.33;3.33;;;;;26.18;100.00;99933.25;2095084;28;46225;-56
2023/07/24 03:10:18;;;;;;;;;4.33;3.00;;;;;26.17;100.00;99942.38;2111130;27;46088;-57
2023/07/24 03:11:19;;;;;;;;;3.67;2.33;;;;;26.16;100.00;99937.97;2115911;27;45028;-54
2023/07/24 03:12:19;;;;;;;;;2.67;2.67;;;;;26.15;100.00;99947.97;2103138;27;46405;-56
2023/07/24 03:13:19;;;;;;;;;4.33;3.00;;;;;26.15;100.00;99953.41;2103333;28;46773;-56
2023/07/24 03:14:20;;;;;;;;;4.33;3.33;;;;;26.15;100.00;99947.97;2102872;28;46387;-57
2023/07/24 03:15:20;;;;;;;;;6.33;4.00;;;;;26.15;100.00;99950.69;2102555;28;46585;-58
2023/07/24 03:16:20;;;;;;;;;4.67;4.67;;;;;26.14;100.00;99945.41;2103189;28;46624;-57
2023/07/24 03:17:22;;;;;;;;;5.67;4.67;;;;;26.15;100.00;99952.56;2103431;28;46185;-55
2023/07/24 03:18:23;;;;;;;;;5.00;4.00;;;;;26.12;100.00;99948.28;2102356;28;46755;-57
2023/07/24 03:19:23;;;;;;;;;4.33;4.33;;;;;26.10;100.00;99936.72;2099391;28;46299;-56
2023/07/24 03:20:23;;;;;;;;;3.00;3.00;;;;;26.11;100.00;99941.16;2100532;27;46493;-54
2023/07/24 03:21:24;;;;;;;;;2.00;2.00;;;;;26.09;100.00;99945.88;2103096;27;46394;-57
2023/07/24 03:22:24;;;;;;;;;4.00;3.00;;;;;26.10;100.00;99940.28;2103067;27;46823;-56
2023/07/24 03:23:24;;;;;;;;;5.00;3.33;;;;;26.08;100.00;99934.16;2101193;27;46333;-57
2023/07/24 03:24:25;;;;;;;;;4.00;4.00;;;;;26.08;100.00;99936.00;2097650;28;46296;-57
2023/07/24 03:25:25;;;;;;;;;2.33;2.00;;;;;26.06;100.00;99938.03;2097633;28;46552;-56
2023/07/24 03:26:26;;;;;;;;;5.67;4.00;;;;;26.02;100.00;99934.75;2097939;28;46295;-56
2023/07/24 03:27:26;;;;;;;;;4.00;4.00;;;;;26.01;100.00;99940.34;2097814;28;46735;-57
2023/07/24 03:28:26;;;;;;;;;3.33;3.33;;;;;25.99;100.00;99945.06;2097004;28;46307;-56
2023/07/24 03:29:27;;;;;;;;;2.33;2.33;;;;;25.98;100.00;99944.22;2097851;28;46825;-57
2023/07/24 03:30:27;;;;;;;;;4.00;4.00;;;;;25.96;100.00;99939.94;2097636;28;46213;-54
2023/07/24 03:31:28;;;;;;;;;3.00;3.00;;;;;25.95;100.00;99935.50;2097638;28;46524;-57
2023/07/24 03:32:28;;;;;;;;;3.00;3.00;;;;;25.95;100.00;99935.50;2097168;28;46295;-57
2023/07/24 03:33:28;;;;;;;;;4.33;3.33;;;;;25.94;100.00;99925.66;2096460;28;46622;-57
2023/07/24 03:34:29;;;;;;;;;6.33;2.00;;;;;25.95;100.00;99924.63;2095942;28;46279;-57
2023/07/24 03:35:29;;;;;;;;;2.33;2.33;;;;;25.95;100.00;99920.06;2096927;28;47007;-57
2023/07/24 03:36:29;;;;;;;;;2.33;2.33;;;;;25.92;100.00;99919.47;2096868;28;46630;-57
2023/07/24 03:37:30;;;;;;;;;2.67;2.67;;;;;25.91;100.00;99920.50;2092799;27;46525;-57
2023/07/24 03:38:30;;;;;;;;;3.33;3.33;;;;;25.91;100.00;99928.66;2097609;28;46896;-57
2023/07/24 03:39:31;;;;;;;;;3.00;2.00;;;;;25.92;100.00;99931.25;2097538;28;46861;-58
2023/07/24 03:40:31;;;;;;;;;2.00;2.00;;;;;25.92;100.00;99941.22;2097515;28;46903;-57
2023/07/24 03:41:31;;;;;;;;;4.33;4.00;;;;;25.91;100.00;99937.66;2097521;28;46282;-58
2023/07/24 03:42:32;;;;;;;;;9.00;4.67;;;;;25.92;100.00;99941.22;2097463;28;46293;-57
2023/07/24 03:43:32;;;;;;;;;4.00;4.00;;;;;25.91;100.00;99943.09;2096505;28;46275;-58
2023/07/24 03:44:32;;;;;;;;;2.33;2.33;;;;;25.90;100.00;99938.66;2097826;28;46610;-56
2023/07/24 03:45:33;;;;;;;;;4.00;3.00;;;;;25.89;100.00;99931.53;2097327;28;46511;-56
2023/07/24 03:46:33;;;;;;;;;5.00;4.67;;;;;25.88;100.00;99934.38;2096188;28;46421;-57
2023/07/24 03:47:34;;;;;;;;;7.33;5.67;;;;;25.88;100.00;99931.66;2089285;28;46398;-56
2023/07/24 03:48:37;;;;;;;;;5.25;5.25;;;;;25.85;100.00;99921.09;2088726;28;46623;-57
2023/07/24 03:49:37;;;;;;;;;2.00;1.50;;;;;25.84;100.00;99924.84;2088933;28;46365;-57
2023/07/24 03:50:38;;;;;;;;;5.00;3.00;;;;;25.83;100.00;99918.53;2089151;28;46979;-57
2023/07/24 03:51:38;;;;;;;;;4.00;3.67;;;;;25.84;100.00;99913.97;2088911;28;46408;-56
2023/07/24 03:52:38;;;;;;;;;3.00;3.00;;;;;25.84;100.00;99900.38;2088945;28;46327;-57
2023/07/24 03:53:38;;;;;;;;;2.67;2.67;;;;;25.83;100.00;99896.81;2100688;28;46427;-56
2023/07/24 03:54:39;;;;;;;;;2.67;2.67;;;;;25.84;100.00;99893.06;2102458;28;46239;-57
2023/07/24 03:55:39;;;;;;;;;4.50;3.50;;;;;25.83;100.00;99895.94;2096894;28;46171;-56
2023/07/24 03:56:39;;;;;;;;;1.25;1.25;;;;;25.80;100.00;99897.97;2101806;28;46092;-56
2023/07/24 03:57:40;;;;;;;;;4.50;4.25;;;;;25.80;100.00;99891.66;2097583;28;46472;-56
2023/07/24 03:58:40;;;;;;;;;7.00;3.00;;;;;25.79;100.00;99898.09;2096947;28;46378;-58
2023/07/24 03:59:40;;;;;;;;;2.25;2.25;;;;;25.80;100.00;99903.41;2097369;28;46220;-56
2023/07/24 04:00:41;;;;;;;;;3.00;3.00;;;;;25.80;100.00;99906.13;2096639;28;46374;-56
2023/07/24 04:01:41;;;;;;;;;9.00;5.00;;;;;25.82;100.00;99908.69;2096727;28;46311;-56
2023/07/24 04:02:41;;;;;;;;;5.00;4.00;;;;;25.81;100.00;99905.09;2097245;28;46448;-57
2023/07/24 04:03:42;;;;;;;;;3.00;3.00;;;;;25.81;100.00;99907.81;2097484;28;46871;-57
2023/07/24 04:04:42;;;;;;;;;4.33;4.33;;;;;25.80;100.00;99897.09;2097288;28;46791;-56
2023/07/24 04:05:42;;;;;;;;;3.33;2.67;;;;;25.78;100.00;99897.22;2097463;28;46612;-57
2023/07/24 04:06:43;;;;;;;;;3.25;3.00;;;;;25.78;100.00;99901.81;2096959;28;47046;-57
2023/07/24 04:07:43;;;;;;;;;3.00;3.00;;;;;25.78;100.00;99896.38;2089105;28;46087;-56
2023/07/24 04:08:43;;;;;;;;;2.00;2.00;;;;;25.78;100.00;99893.66;2088885;28;46249;-55
2023/07/24 04:09:44;;;;;;;;;4.67;3.00;;;;;25.75;100.00;99896.69;2088974;28;46432;-57
2023/07/24 04:10:44;;;;;;;;;4.33;2.33;;;;;25.76;100.00;99898.38;2090376;28;46472;-57
2023/07/24 04:11:44;;;;;;;;;2.00;2.00;;;;;25.73;100.00;99895.97;2097170;28;46572;-56
2023/07/24 04:12:44;;;;;;;;;2.33;2.00;;;;;25.73;100.00;99896.84;2096770;28;46294;-56
2023/07/24 04:13:45;;;;;;;;;3.67;2.67;;;;;25.73;100.00;99904.13;2091729;28;47863;-57
2023/07/24 04:14:45;;;;;;;;;2.75;2.00;;;;;25.73;100.00;99898.69;2089083;28;46696;-55
2023/07/24 04:15:46;;;;;;;;;4.33;3.33;;;;;25.73;100.00;99899.56;2089256;28;46281;-55
2023/07/24 04:16:46;;;;;;;;;1.50;1.50;;;;;25.77;100.00;99903.66;2092391;28;46558;-57
2023/07/24 04:17:46;;;;;;;;;2.00;2.00;;;;;25.70;100.00;99899.88;2097587;28;46699;-57
2023/07/24 04:18:47;;;;;;;;;2.00;2.00;;;;;25.71;100.00;99904.28;2097000;28;46731;-55
2023/07/24 04:19:47;;;;;;;;;4.00;3.00;;;;;25.71;100.00;99906.16;2097099;28;46398;-56
2023/07/24 04:20:47;;;;;;;;;2.00;2.00;;;;;25.72;100.00;99903.28;2097267;28;46650;-57
2023/07/24 04:21:47;;;;;;;;;1.00;1.00;;;;;25.71;100.00;99908.88;2097139;28;46638;-57
2023/07/24 04:22:48;;;;;;;;;2.00;2.00;;;;;25.70;100.00;99907.16;2096800;28;46381;-57
2023/07/24 04:23:48;;;;;;;;;2.00;2.00;;;;;25.70;100.00;99910.72;2097135;28;46463;-57
2023/07/24 04:24:48;;;;;;;;;3.00;3.00;;;;;25.69;100.00;99902.72;2096516;28;47089;-57
2023/07/24 04:25:50;;;;;;;;;4.00;3.00;;;;;25.67;100.00;99902.00;2099749;28;46637;-57
2023/07/24 04:26:50;;;;;;;;;2.25;2.25;;;;;25.65;100.00;99907.56;2096329;28;46265;-56
2023/07/24 04:27:50;;;;;;;;;3.25;3.25;;;;;25.65;100.00;99898.56;2104556;27;46407;-57
2023/07/24 04:28:50;;;;;;;;;2.00;2.00;;;;;25.65;100.00;99907.56;2096125;28;46611;-56
2023/07/24 04:29:51;;;;;;;;;2.75;1.00;;;;;25.65;100.00;99903.97;2095867;28;46240;-57
2023/07/24 04:30:51;;;;;;;;;3.00;3.00;;;;;25.65;100.00;99902.13;2088907;28;46268;-57
2023/07/24 04:31:52;;;;;;;;;1.50;1.50;;;;;25.65;100.00;99898.56;2088869;28;46268;-56
2023/07/24 04:32:52;;;;;;;;;3.00;2.00;;;;;25.65;100.00;99899.41;2089648;28;46761;-56
2023/07/24 04:33:52;;;;;;;;;0.67;0.67;;;;;25.64;100.00;99897.69;2096804;28;46677;-57
2023/07/24 04:34:53;;;;;;;;;1.67;1.67;;;;;25.65;100.00;99898.56;2097114;28;46009;-58
2023/07/24 04:35:56;;;;;;;;;2.00;2.00;;;;;25.66;100.00;99898.41;2096877;28;46574;-54
2023/07/24 04:36:57;;;;;;;;;2.60;2.60;;;;;25.64;100.00;99889.53;2097010;28;46565;-56
2023/07/24 04:37:57;;;;;;;;;2.00;2.00;;;;;25.64;100.00;99885.97;2093727;28;46270;-57
2023/07/24 04:38:57;;;;;;;;;2.33;2.00;;;;;25.62;100.00;99886.13;2096899;28;46282;-56
2023/07/24 04:39:58;;;;;;;;;1.00;1.00;;;;;25.63;100.00;99889.69;2097285;28;46651;-57
2023/07/24 04:41:01;;;;;;;;;2.00;2.00;;;;;25.64;100.00;99888.69;2096469;28;46551;-56
2023/07/24 04:42:02;;;;;;;;;2.50;0.50;;;;;25.62;100.00;99893.41;2088488;28;46526;-57